Rechercher aéroport 
image banner adimage banner adimage banner ad
image banner ad

KHJO - Hanford Muni

Situé à Hanford, United States

ICAO - HJO, IATA -

Données fournies par Airmate  

Information générale

Coordonnées: N36°19'0" W119°37'40"
Élévation : 240 feet MSL.
Variation magnétique : 14° East
Voir autres Aéroports à California

Données opérationnelles

Special qualification required
Heure actuelle UTC:
Heure actuelle locale:
Météo
METAR: KHJO 290953Z AUTO 31004KT 10SM CLR 28/14 A2989 RMK AO2 SLP119 T02780139
Voir NOTAMs / SUP AIP / TFR affectant cet aéroport [VIEW]
Fréquences de communication: [VIEW]

Pistes:

Identifiant RWYQFULongueur (ft)Largeur (ft)SurfaceLDA (ft)
14151°517975ASPH
32331°517975ASPH

Coordonnées de l'aéroport

Adresse: Hanford United States

Vue satellite de KHJO